Terminal Aerodrome Forecast
Issued by NWS

Home | Current Version | Previous Version | Text Only | Print | Product List | Glossary On
Versions: 1 2 3 4 5 6 7 8 9 10 11 12 13
480
FTUS44 KLIX 261258 AAA
TAFGPT
TAF AMD
KGPT 261258Z 2613/2712 29006KT P6SM VCTS BKN015CB
      TEMPO 2613/2614 OVC005CB
     FM261600 13005KT P6SM FEW040 SCT090
     FM261800 14005KT P6SM VCTS BKN040CB BKN080
     FM262100 15006KT P6SM BKN045 BKN140
     FM270000 14004KT P6SM SCT250=

USA.gov is the U.S. government's official web portal to all federal, state and local government web resources and services.